BCY8 LQSA-LDZA
Flight info
| Callsign | BCY8 |
|---|---|
| Flight time | N/A |
| Altitude | 20000 |
| Route | BOSNA L608 KOMAR L187 TEBLI |
| Aircraft | RJ85/M-SDFGIRWY/LB1 |
Departure
| Time | 2026-04-23 09:14 |
|---|---|
| Airport | Sarajevo International Airport (LQSA) |
Arrival
| Time | N/A |
|---|---|
| Airport | Zagreb Franjo Tuđman International Airport (LDZA) |
| Time | Latitude | Longitude | Altitude | Speed | Heading |
|---|---|---|---|---|---|
| 2026-04-23 08:59 | 43.82535 | 18.33619 | 1681 ft | 0 kts | 28° |
| 2026-04-23 09:00 | 43.82532 | 18.33617 | 1681 ft | 2 kts | 28° |
| 2026-04-23 09:01 | 43.82517 | 18.33602 | 1682 ft | 3 kts | 43° |
| 2026-04-23 09:01 | 43.82504 | 18.33581 | 1683 ft | 3 kts | 56° |
| 2026-04-23 09:01 | 43.82494 | 18.33559 | 1680 ft | 2 kts | 60° |
| 2026-04-23 09:01 | 43.82491 | 18.33550 | 1680 ft | 0 kts | 60° |
| 2026-04-23 09:07 | 43.82491 | 18.33551 | 1680 ft | 0 kts | 61° |
| 2026-04-23 09:08 | 43.82492 | 18.33554 | 1680 ft | 1 kts | 72° |
| 2026-04-23 09:08 | 43.82487 | 18.33574 | 1684 ft | 3 kts | 116° |
| 2026-04-23 09:08 | 43.82473 | 18.33615 | 1686 ft | 6 kts | 116° |
| 2026-04-23 09:08 | 43.82447 | 18.33689 | 1686 ft | 11 kts | 116° |
| 2026-04-23 09:09 | 43.82407 | 18.33801 | 1688 ft | 15 kts | 116° |
| 2026-04-23 09:09 | 43.82345 | 18.33959 | 1692 ft | 12 kts | 122° |
| 2026-04-23 09:09 | 43.82319 | 18.34020 | 1694 ft | 10 kts | 122° |
| 2026-04-23 09:09 | 43.82287 | 18.34093 | 1694 ft | 8 kts | 120° |
| 2026-04-23 09:10 | 43.82267 | 18.34141 | 1697 ft | 4 kts | 120° |
| 2026-04-23 09:10 | 43.82257 | 18.34164 | 1695 ft | 0 kts | 120° |
| 2026-04-23 09:10 | 43.82255 | 18.34168 | 1696 ft | 1 kts | 120° |
| 2026-04-23 09:11 | 43.82246 | 18.34192 | 1696 ft | 5 kts | 117° |
| 2026-04-23 09:11 | 43.82225 | 18.34248 | 1700 ft | 9 kts | 117° |
| 2026-04-23 09:11 | 43.82189 | 18.34345 | 1700 ft | 14 kts | 117° |
| 2026-04-23 09:11 | 43.82138 | 18.34482 | 1704 ft | 17 kts | 117° |
| 2026-04-23 09:12 | 43.82066 | 18.34622 | 1707 ft | 18 kts | 146° |
| 2026-04-23 09:12 | 43.81943 | 18.34557 | 1705 ft | 22 kts | 256° |
| 2026-04-23 09:12 | 43.82004 | 18.34362 | 1699 ft | 23 kts | 297° |
| 2026-04-23 09:12 | 43.82078 | 18.34164 | 1694 ft | 23 kts | 297° |
| 2026-04-23 09:13 | 43.82162 | 18.33941 | 1690 ft | 47 kts | 297° |
| 2026-04-23 09:13 | 43.82429 | 18.33234 | 1675 ft | 113 kts | 298° |
| 2026-04-23 09:13 | 43.82850 | 18.32087 | 1725 ft | 149 kts | 303° |
| 2026-04-23 09:13 | 43.83296 | 18.30766 | 2102 ft | 152 kts | 301° |
| 2026-04-23 09:14 | 43.83794 | 18.29488 | 2494 ft | 148 kts | 310° |
| 2026-04-23 09:14 | 43.84514 | 18.28484 | 2852 ft | 151 kts | 324° |
| 2026-04-23 09:14 | 43.85361 | 18.27647 | 3278 ft | 149 kts | 336° |
| 2026-04-23 09:14 | 43.86348 | 18.27238 | 3608 ft | 148 kts | 351° |
| 2026-04-23 09:15 | 43.87360 | 18.26975 | 3978 ft | 152 kts | 352° |
| 2026-04-23 09:15 | 43.88448 | 18.26761 | 4284 ft | 160 kts | 355° |
| 2026-04-23 09:15 | 43.89577 | 18.26652 | 4762 ft | 167 kts | 359° |
| 2026-04-23 09:15 | 43.90771 | 18.26633 | 5245 ft | 173 kts | 0° |
| 2026-04-23 09:16 | 43.92033 | 18.26722 | 5613 ft | 194 kts | 5° |
| 2026-04-23 09:16 | 43.93448 | 18.26903 | 6120 ft | 211 kts | 4° |
| 2026-04-23 09:16 | 43.94982 | 18.27086 | 6604 ft | 235 kts | 7° |
| 2026-04-23 09:16 | 43.96623 | 18.27501 | 7303 ft | 237 kts | 13° |
| 2026-04-23 09:17 | 43.98273 | 18.28055 | 7826 ft | 261 kts | 10° |
| 2026-04-23 09:17 | 44.00181 | 18.28421 | 7926 ft | 291 kts | 7° |
| 2026-04-23 09:17 | 44.01234 | 18.28611 | 7993 ft | 304 kts | 8° |